Time;durP1;ratioP1;P1;durP2;ratioP2;P2;SDS_P1;SDS_P2;PMS_P1;PMS_P2;Temp;Humidity;BMP_temperature;BMP_pressure;BME280_temperature;BME280_humidity;BME280_pressure;Samples;Min_cycle;Max_cycle;Signal;HPM_P1;HPM_P2
2022/05/23 00:01:46;;;;;;;6.17;2.90;;;;;;;13.14;66.81;100378.47;5030311;28;20217;-83
2022/05/23 00:04:12;;;;;;;2.73;2.30;;;;;;;13.12;66.70;100375.91;5030980;28;20204;-81
2022/05/23 00:06:39;;;;;;;4.20;2.80;;;;;;;13.09;66.72;100370.78;5030141;28;20870;-81
2022/05/23 00:09:07;;;;;;;3.30;2.47;;;;;;;13.09;66.76;100377.97;5030552;28;20229;-81
2022/05/23 00:11:33;;;;;;;3.87;2.20;;;;;;;13.06;66.42;100372.88;5030220;28;20589;-81
2022/05/23 00:14:00;;;;;;;3.27;2.47;;;;;;;13.02;66.30;100366.06;5030515;28;20208;-81
2022/05/23 00:16:30;;;;;;;3.43;2.43;;;;;;;12.97;66.15;100361.06;5029512;28;20239;-82
2022/05/23 00:18:56;;;;;;;3.03;2.53;;;;;;;12.96;66.51;100367.38;5029395;28;20213;-81
2022/05/23 00:21:23;;;;;;;4.10;2.53;;;;;;;12.93;66.54;100374.78;5029954;28;20222;-81
2022/05/23 00:23:49;;;;;;;3.87;2.53;;;;;;;12.85;66.22;100368.22;5029959;28;20202;-82
2022/05/23 00:26:21;;;;;;;2.80;2.27;;;;;;;12.79;66.51;100373.19;5029687;28;20206;-82
2022/05/23 00:28:47;;;;;;;4.30;3.00;;;;;;;12.74;67.04;100364.66;5030153;28;20224;-83
2022/05/23 00:31:14;;;;;;;3.80;2.93;;;;;;;12.73;67.11;100373.66;5029711;28;20225;-81
2022/05/23 00:36:26;;;;;;;3.90;2.30;;;;;;;12.73;67.46;100354.94;5017387;28;20209;-81
2022/05/23 00:38:53;;;;;;;5.67;2.77;;;;;;;12.71;67.54;100346.22;5022972;28;20200;-82
2022/05/23 00:44:18;;;;;;;4.23;3.00;;;;;;;12.61;67.45;100347.88;5030265;28;20284;-82
2022/05/23 00:46:53;;;;;;;3.37;2.47;;;;;;;12.57;67.94;100354.41;5029232;28;20208;-81
2022/05/23 00:49:22;;;;;;;4.30;2.93;;;;;;;12.54;67.84;100355.50;5022436;28;20694;-82
2022/05/23 00:51:50;;;;;;;3.53;2.87;;;;;;;12.53;67.93;100351.16;5013491;28;20285;-82
2022/05/23 00:54:17;;;;;;;3.40;3.10;;;;;;;12.51;68.29;100347.75;5010573;28;20220;-81
2022/05/23 00:56:48;;;;;;;4.23;3.03;;;;;;;12.49;68.15;100350.53;5013774;28;20214;-82
2022/05/23 00:59:17;;;;;;;4.17;2.87;;;;;;;12.43;68.20;100340.28;5014084;28;20207;-81
2022/05/23 01:01:44;;;;;;;4.77;3.00;;;;;;;12.41;68.46;100342.22;5029916;28;20210;-81
2022/05/23 01:04:11;;;;;;;2.67;2.47;;;;;;;12.40;68.48;100340.53;5033949;28;20205;-82
2022/05/23 01:06:38;;;;;;;3.67;2.87;;;;;;;12.38;68.68;100344.28;5033431;28;20561;-81
2022/05/23 01:09:05;;;;;;;4.03;3.00;;;;;;;12.38;68.97;100341.59;5038789;28;20220;-82
2022/05/23 01:11:31;;;;;;;5.93;3.10;;;;;;;12.35;68.88;100340.03;5014428;28;20222;-82
2022/05/23 01:13:59;;;;;;;3.43;3.13;;;;;;;12.33;68.74;100344.66;5015052;28;20707;-81
2022/05/23 01:16:27;;;;;;;4.03;3.23;;;;;;;12.32;68.93;100340.28;5033690;28;20855;-82
2022/05/23 01:18:54;;;;;;;3.87;3.37;;;;;;;12.32;69.30;100342.94;5034319;28;20214;-80
2022/05/23 01:21:29;;;;;;;3.60;2.63;;;;;;;12.31;69.23;100335.91;5034378;28;20231;-80
2022/05/23 01:24:02;;;;;;;3.17;2.87;;;;;;;12.30;69.01;100331.53;5034004;28;20198;-81
2022/05/23 01:26:32;;;;;;;3.73;2.50;;;;;;;12.27;68.93;100331.75;5033493;28;20192;-81
2022/05/23 01:28:58;;;;;;;3.70;2.80;;;;;;;12.20;68.98;100335.81;5033516;28;20216;-80
2022/05/23 01:31:25;;;;;;;4.50;2.80;;;;;;;12.12;68.88;100333.75;5033227;28;20230;-80
2022/05/23 01:33:51;;;;;;;3.37;3.07;;;;;;;12.02;68.97;100321.19;5033788;28;20206;-81
2022/05/23 01:36:18;;;;;;;3.07;2.77;;;;;;;11.92;69.01;100314.84;5033739;28;20207;-82
2022/05/23 01:38:45;;;;;;;2.87;2.57;;;;;;;11.83;69.58;100314.53;5034569;28;20215;-83
2022/05/23 01:41:11;;;;;;;3.73;2.70;;;;;;;11.78;69.69;100306.06;5034690;28;20223;-81
2022/05/23 01:43:39;;;;;;;6.97;3.07;;;;;;;11.75;70.08;100303.56;5035518;28;20202;-81
2022/05/23 01:46:05;;;;;;;3.53;3.17;;;;;;;11.73;70.66;100294.81;5051189;28;20207;-82
2022/05/23 01:48:32;;;;;;;4.73;3.13;;;;;;;11.71;70.85;100291.41;5054398;28;20207;-83
2022/05/23 01:50:58;;;;;;;3.97;3.50;;;;;;;11.71;70.93;100290.56;5053218;28;20238;-84
2022/05/23 01:53:26;;;;;;;3.60;3.20;;;;;;;11.68;71.22;100286.31;5033986;28;20210;-82
2022/05/23 01:55:53;;;;;;;5.00;3.20;;;;;;;11.68;71.35;100283.63;5034343;28;20242;-82
2022/05/23 02:01:13;;;;;;;5.83;4.00;;;;;;;11.68;71.67;100280.97;5033080;28;20799;-82
2022/05/23 02:01:15;;;;;;;5.40;3.40;;;;;;;11.68;71.73;100280.13;5033296;28;20288;-80
2022/05/23 02:03:42;;;;;;;3.53;3.23;;;;;;;11.65;71.71;100273.19;5033127;28;20191;-81
2022/05/23 02:06:09;;;;;;;4.17;3.30;;;;;;;11.64;72.19;100268.00;5031927;28;20574;-81
2022/05/23 02:08:36;;;;;;;3.87;3.47;;;;;;;11.64;72.35;100268.00;5032120;28;20216;-81
2022/05/23 02:11:02;;;;;;;6.77;3.77;;;;;;;11.64;72.41;100268.00;5032591;28;20868;-81
2022/05/23 02:13:29;;;;;;;5.10;3.40;;;;;;;11.59;72.52;100257.66;5032932;28;20212;-81
2022/05/23 02:15:55;;;;;;;3.70;3.40;;;;;;;11.57;72.46;100262.25;5032605;28;20213;-81
2022/05/23 02:18:23;;;;;;;4.80;3.40;;;;;;;11.52;72.46;100248.38;5031516;28;20245;-81
2022/05/23 02:20:50;;;;;;;4.03;3.30;;;;;;;11.48;72.78;100242.41;5032685;28;20223;-80
2022/05/23 02:23:16;;;;;;;4.50;3.83;;;;;;;11.47;73.17;100242.53;5032721;28;20218;-80
2022/05/23 02:25:43;;;;;;;4.00;3.70;;;;;;;11.44;73.70;100234.78;5032846;28;20676;-82
2022/05/23 02:28:09;;;;;;;5.50;3.40;;;;;;;11.45;74.26;100244.50;5031887;28;20210;-81
2022/05/23 02:30:36;;;;;;;4.80;3.93;;;;;;;11.47;74.36;100247.88;5032369;28;20226;-82
2022/05/23 02:33:02;;;;;;;4.93;3.80;;;;;;;11.49;74.61;100237.94;5032523;28;20207;-81
2022/05/23 02:35:31;;;;;;;4.20;3.80;;;;;;;11.51;74.44;100238.69;5035688;28;20209;-81
2022/05/23 02:37:57;;;;;;;4.83;4.20;;;;;;;11.51;74.63;100236.00;5031393;28;20226;-81
2022/05/23 02:40:24;;;;;;;8.10;4.07;;;;;;;11.51;74.55;100240.50;5026147;28;20583;-81
2022/05/23 02:42:51;;;;;;;4.77;3.60;;;;;;;11.48;74.77;100239.75;5032847;28;20198;-81
2022/05/23 02:45:18;;;;;;;5.00;4.03;;;;;;;11.48;75.17;100234.41;5032515;28;20247;-82
2022/05/23 02:47:44;;;;;;;5.10;3.90;;;;;;;11.49;74.95;100228.13;5032427;28;20282;-81
2022/05/23 02:50:12;;;;;;;4.00;3.60;;;;;;;11.48;75.00;100231.75;5032722;28;20316;-81
2022/05/23 02:52:41;;;;;;;5.50;4.00;;;;;;;11.48;74.98;100239.75;5032232;28;20229;-82
2022/05/23 02:55:10;;;;;;;6.27;4.40;;;;;;;11.48;75.11;100236.22;5023426;28;20215;-82
2022/05/23 02:57:37;;;;;;;4.80;4.33;;;;;;;11.49;75.31;100236.13;5031839;28;20209;-81
2022/05/23 03:00:04;;;;;;;4.83;4.10;;;;;;;11.51;75.38;100237.81;5013959;28;20231;-81
2022/05/23 03:05:15;;;;;;;4.47;3.00;;;;;;;11.52;75.43;100244.88;5031804;28;20191;-83
2022/05/23 03:07:42;;;;;;;7.97;4.27;;;;;;;11.53;75.61;100254.56;5031063;28;20202;-81
2022/05/23 03:10:09;;;;;;;4.37;3.30;;;;;;;11.55;75.49;100253.50;5029523;28;20232;-83
2022/05/23 03:12:36;;;;;;;5.03;4.13;;;;;;;11.58;75.60;100257.75;5019570;28;20610;-82
2022/05/23 03:15:02;;;;;;;4.67;4.20;;;;;;;11.61;75.54;100268.22;5029853;28;20216;-82
2022/05/23 03:17:29;;;;;;;4.27;3.77;;;;;;;11.60;75.29;100274.50;5030489;28;20207;-83
2022/05/23 03:19:55;;;;;;;5.17;4.07;;;;;;;11.61;75.29;100271.72;5031808;28;20226;-83
2022/05/23 03:27:53;;;;;;;4.40;4.00;;;;;;;11.60;75.04;100248.69;5025850;28;20201;-82
2022/05/23 03:30:20;;;;;;;4.70;4.30;;;;;;;11.59;75.12;100246.13;5031471;28;20242;-82
2022/05/23 03:32:46;;;;;;;5.63;3.83;;;;;;;11.56;74.96;100238.34;5032546;28;20210;-81
2022/05/23 03:35:13;;;;;;;5.07;4.40;;;;;;;11.54;75.41;100235.78;5032529;28;20232;-82
2022/05/23 03:37:39;;;;;;;4.60;4.20;;;;;;;11.51;75.46;100230.69;5031273;28;20208;-83
2022/05/23 03:40:09;;;;;;;5.10;4.60;;;;;;;11.51;75.81;100230.69;5032102;28;20227;-83
2022/05/23 03:42:36;;;;;;;5.53;4.30;;;;;;;11.51;76.19;100228.00;5030780;28;20213;-82
2022/05/23 03:45:03;;;;;;;4.73;4.20;;;;;;;11.53;76.16;100226.09;5031581;28;20214;-81
2022/05/23 03:47:30;;;;;;;6.30;4.13;;;;;;;11.54;76.44;100222.47;5030746;28;20210;-82
2022/05/23 03:49:56;;;;;;;4.63;3.90;;;;;;;11.55;76.33;100216.16;5031188;28;20231;-81
2022/05/23 03:52:23;;;;;;;5.20;4.23;;;;;;;11.57;76.37;100226.72;5030793;28;20228;-82
2022/05/23 03:54:49;;;;;;;4.30;3.90;;;;;;;11.57;76.43;100216.91;5032196;28;20205;-82
2022/05/23 03:57:17;;;;;;;3.97;3.57;;;;;;;11.58;76.39;100209.75;5030849;28;20280;-83
2022/05/23 03:59:45;;;;;;;6.37;4.13;;;;;;;11.58;76.35;100207.94;5030941;28;20232;-81
2022/05/23 04:02:12;;;;;;;4.70;4.30;;;;;;;11.59;76.58;100214.13;5030975;28;20207;-81
2022/05/23 04:04:39;;;;;;;5.33;4.37;;;;;;;11.61;76.69;100210.38;5030516;28;20214;-83
2022/05/23 04:07:06;;;;;;;4.30;3.90;;;;;;;11.63;76.59;100203.13;5030322;28;20218;-83
2022/05/23 04:09:34;;;;;;;5.27;4.20;;;;;;;11.64;76.57;100188.81;5030595;28;20212;-82
2022/05/23 04:12:00;;;;;;;4.67;4.20;;;;;;;11.66;76.77;100186.00;5030605;28;20234;-81
2022/05/23 04:14:28;;;;;;;6.53;4.33;;;;;;;11.69;76.79;100180.44;5030663;28;20424;-82
2022/05/23 04:16:55;;;;;;;7.63;4.20;;;;;;;11.72;77.14;100191.75;5023533;28;20211;-81
2022/05/23 04:19:22;;;;;;;5.30;3.83;;;;;;;11.76;77.07;100187.06;5011583;28;20793;-82
2022/05/23 04:21:49;;;;;;;4.67;4.27;;;;;;;11.77;76.84;100173.63;5010413;28;20209;-81
2022/05/23 04:24:18;;;;;;;7.27;3.83;;;;;;;11.81;76.99;100167.09;5031518;28;20208;-82
2022/05/23 04:26:45;;;;;;;6.23;4.60;;;;;;;11.86;77.26;100166.72;5017713;28;20198;-82
2022/05/23 04:29:12;;;;;;;5.57;4.40;;;;;;;11.90;77.51;100173.53;5031253;28;20220;-82
2022/05/23 04:31:39;;;;;;;5.17;4.67;;;;;;;11.95;77.27;100176.69;5025500;28;20231;-82
2022/05/23 04:36:51;;;;;;;5.33;4.83;;;;;;;12.00;77.10;100157.69;5025308;28;20309;-81
2022/05/23 04:39:18;;;;;;;6.43;4.87;;;;;;;12.01;76.96;100152.19;5022014;28;20223;-81
2022/05/23 04:41:44;;;;;;;7.07;5.30;;;;;;;12.04;76.85;100148.44;5024610;28;20217;-81
2022/05/23 04:44:11;;;;;;;4.93;4.50;;;;;;;12.08;76.77;100139.22;5019635;28;20684;-81
2022/05/23 04:49:39;;;;;;;7.60;5.10;;;;;;;12.11;76.76;100137.19;5020685;28;20198;-82
2022/05/23 04:52:12;;;;;;;6.90;5.47;;;;;;;12.24;76.91;100130.88;5013494;28;20238;-81
2022/05/23 04:54:40;;;;;;;8.20;5.70;;;;;;;12.32;77.42;100126.66;5014328;28;20204;-81
2022/05/23 04:57:08;;;;;;;5.87;4.93;;;;;;;12.39;77.49;100122.50;5043122;28;20201;-81
2022/05/23 04:59:35;;;;;;;5.80;4.83;;;;;;;12.45;77.44;100126.53;5029775;28;20215;-81
2022/05/23 05:02:02;;;;;;;7.07;5.03;;;;;;;12.51;77.57;100116.22;5019545;28;20206;-81
2022/05/23 05:04:31;;;;;;;9.37;5.17;;;;;;;12.57;77.58;100114.00;5021167;28;20205;-82
2022/05/23 05:06:57;;;;;;;4.90;4.50;;;;;;;12.62;77.23;100112.66;5023763;28;20213;-82
2022/05/23 05:09:24;;;;;;;5.43;4.93;;;;;;;12.68;77.54;100119.34;5024620;28;20294;-82
2022/05/23 05:11:50;;;;;;;6.80;4.93;;;;;;;12.73;77.68;100109.13;5033509;28;20221;-82
2022/05/23 05:14:17;;;;;;;5.30;4.57;;;;;;;12.79;77.59;100111.31;5033822;28;20209;-82
2022/05/23 05:16:43;;;;;;;7.17;5.13;;;;;;;12.85;77.57;100109.00;5021077;28;20211;-82
2022/05/23 05:19:10;;;;;;;5.73;5.20;;;;;;;12.90;77.57;100097.91;5022972;28;20205;-82
2022/05/23 05:21:38;;;;;;;6.20;5.70;;;;;;;12.94;77.32;100091.34;5015081;28;20223;-82
2022/05/23 05:24:06;;;;;;;6.23;4.20;;;;;;;12.98;77.44;100082.09;5017778;28;20546;-84
2022/05/23 05:26:32;;;;;;;6.50;4.57;;;;;;;13.04;77.61;100075.41;5024169;28;20198;-84
2022/05/23 05:28:59;;;;;;;5.80;4.63;;;;;;;13.08;77.47;100074.16;5022225;28;20206;-85
2022/05/23 05:31:31;;;;;;;4.90;4.07;;;;;;;13.12;77.38;100070.25;5019796;28;20226;-84
2022/05/23 05:34:02;;;;;;;4.63;4.23;;;;;;;13.16;77.43;100069.91;5020951;28;20229;-83
2022/05/23 05:36:33;;;;;;;6.97;4.53;;;;;;;13.19;77.41;100058.13;5013103;28;20261;-85
2022/05/23 05:39:03;;;;;;;7.17;4.10;;;;;;;13.23;77.03;100064.91;5022672;28;20211;-85
2022/05/23 05:41:36;;;;;;;4.73;4.17;;;;;;;13.25;77.08;100065.66;5020063;28;20229;-85
2022/05/23 05:44:05;;;;;;;6.00;4.03;;;;;;;13.27;76.76;100070.84;5013848;28;20225;-85
2022/05/23 05:46:38;;;;;;;4.30;3.90;;;;;;;13.28;76.71;100067.19;5013631;28;20219;-84
2022/05/23 05:49:08;;;;;;;6.03;4.37;;;;;;;13.31;76.28;100059.75;5029946;28;20205;-83
2022/05/23 05:51:38;;;;;;;5.90;4.40;;;;;;;13.34;76.34;100058.66;5030492;28;20237;-84
2022/05/23 05:54:09;;;;;;;4.63;3.93;;;;;;;13.34;76.17;100062.19;5031580;28;20206;-83
2022/05/23 05:56:37;;;;;;;4.83;4.33;;;;;;;13.36;75.97;100062.91;5035583;28;20221;-83
2022/05/23 05:59:03;;;;;;;4.80;3.87;;;;;;;13.38;76.00;100060.09;5026792;28;20202;-84
2022/05/23 06:01:30;;;;;;;4.53;4.13;;;;;;;13.40;75.73;100050.13;5019134;28;20320;-83
2022/05/23 06:03:56;;;;;;;5.47;4.50;;;;;;;13.41;76.03;100049.16;5025121;28;20587;-83
2022/05/23 06:12:00;;;;;;;6.53;4.20;;;;;;;13.51;75.79;100034.00;4979971;28;20238;-84
2022/05/23 06:14:27;;;;;;;6.13;4.10;;;;;;;13.55;76.29;100030.94;5022065;28;20202;-83
2022/05/23 06:16:54;;;;;;;3.93;3.50;;;;;;;13.58;75.76;100035.19;5026155;28;20198;-84
2022/05/23 06:19:21;;;;;;;5.10;4.33;;;;;;;13.61;76.05;100026.06;5016531;28;20233;-85
2022/05/23 06:21:47;;;;;;;5.63;3.90;;;;;;;13.64;75.61;100034.66;5021534;28;20668;-83
2022/05/23 06:24:15;;;;;;;4.67;3.73;;;;;;;13.68;75.80;100022.69;5017179;28;20727;-84
2022/05/23 06:26:42;;;;;;;6.87;4.17;;;;;;;13.71;75.99;100021.59;5023460;28;20207;-84
2022/05/23 06:29:08;;;;;;;4.57;4.10;;;;;;;13.74;75.98;100019.50;5025851;28;20230;-85
2022/05/23 06:31:35;;;;;;;4.77;4.30;;;;;;;13.77;75.82;100018.41;5026452;28;20254;-85
2022/05/23 06:34:01;;;;;;;4.77;3.97;;;;;;;13.81;75.66;100022.47;5022535;28;20550;-84
2022/05/23 06:36:28;;;;;;;5.23;3.73;;;;;;;13.84;75.74;100016.88;5018548;28;20210;-84
2022/05/23 06:38:55;;;;;;;4.47;4.00;;;;;;;13.88;75.56;100015.63;5022579;28;20214;-84
2022/05/23 06:41:23;;;;;;;6.57;3.63;;;;;;;13.90;75.36;100011.00;5019814;28;20217;-84
2022/05/23 06:43:49;;;;;;;4.90;4.40;;;;;;;13.95;75.38;100000.75;5018127;28;20202;-84
2022/05/23 06:46:16;;;;;;;7.43;4.03;;;;;;;13.99;75.41;99999.47;5028415;28;20205;-84
2022/05/23 06:48:43;;;;;;;4.77;3.73;;;;;;;14.06;75.58;99994.44;5023558;28;20569;-84
2022/05/23 06:51:10;;;;;;;5.07;4.20;;;;;;;14.12;75.54;99991.22;5025719;28;20242;-85
2022/05/23 06:53:38;;;;;;;4.43;3.80;;;;;;;14.17;75.26;99987.13;5020782;28;20289;-85
2022/05/23 06:56:05;;;;;;;5.63;3.67;;;;;;;14.22;75.43;99979.53;5020651;28;20207;-86
2022/05/23 06:58:32;;;;;;;6.20;3.53;;;;;;;14.27;74.94;99979.13;5022754;28;20233;-85
2022/05/23 07:00:59;;;;;;;5.63;3.63;;;;;;;14.34;74.87;99988.31;5021451;28;20232;-85
2022/05/23 07:03:26;;;;;;;5.10;3.40;;;;;;;14.40;74.76;99981.56;5031148;28;20236;-86
2022/05/23 07:14:06;;;;;;;3.97;3.27;;;;;;;14.57;72.89;99952.28;5051501;28;20339;-85
2022/05/23 07:16:34;;;;;;;4.73;3.70;;;;;;;14.66;72.99;99944.41;5045490;28;20561;-83
2022/05/23 07:19:02;;;;;;;4.40;3.40;;;;;;;14.73;72.90;99949.03;5029705;28;20206;-85
2022/05/23 07:21:31;;;;;;;4.57;3.70;;;;;;;14.80;72.43;99947.50;5024228;28;20773;-84
2022/05/23 07:23:58;;;;;;;4.07;3.40;;;;;;;14.85;72.27;99947.94;5026565;28;20230;-83
2022/05/23 07:26:26;;;;;;;4.70;3.70;;;;;;;14.90;72.12;99956.38;5020124;28;20289;-83
2022/05/23 07:28:53;;;;;;;6.87;3.60;;;;;;;14.94;71.99;99949.75;5021178;28;20209;-82
2022/05/23 07:31:21;;;;;;;7.10;3.93;;;;;;;15.01;71.47;99947.38;5022732;28;20226;-84
2022/05/23 07:33:48;;;;;;;4.20;3.07;;;;;;;15.09;71.16;99952.84;5020177;28;20217;-82
2022/05/23 07:36:15;;;;;;;5.03;3.83;;;;;;;15.16;71.33;99948.63;5019570;28;20201;-84
2022/05/23 07:38:42;;;;;;;3.63;3.10;;;;;;;15.25;70.75;99945.06;5015797;28;20211;-83
2022/05/23 07:41:11;;;;;;;6.10;3.60;;;;;;;15.28;70.49;99950.13;5017988;28;20222;-83
2022/05/23 07:43:41;;;;;;;3.97;3.17;;;;;;;15.35;70.08;99946.88;5013655;28;20689;-82
2022/05/23 07:46:12;;;;;;;4.97;3.37;;;;;;;15.42;70.04;99942.63;5017862;28;20211;-81
2022/05/23 07:48:41;;;;;;;4.83;3.40;;;;;;;15.48;69.96;99945.56;5018454;28;20198;-82
2022/05/23 07:51:10;;;;;;;5.83;3.57;;;;;;;15.55;69.97;99943.16;5020708;28;20230;-83
2022/05/23 08:01:49;;;;;;;3.90;3.40;;;;;;;15.78;70.06;99917.66;5014071;28;20207;-84
2022/05/23 08:04:17;;;;;;;4.50;3.90;;;;;;;15.88;70.34;99917.63;5013214;28;20210;-83
2022/05/23 08:06:44;;;;;;;6.53;3.60;;;;;;;15.97;70.51;99912.19;5018947;28;20209;-84
2022/05/23 08:09:11;;;;;;;8.37;4.17;;;;;;;16.03;69.92;99909.91;5017699;28;20830;-84
2022/05/23 08:11:38;;;;;;;5.63;4.20;;;;;;;16.07;69.53;99906.78;5017084;28;20243;-83
2022/05/23 08:14:05;;;;;;;6.17;3.70;;;;;;;16.12;69.12;99903.66;5020705;28;20209;-84
2022/05/23 08:16:32;;;;;;;5.87;3.87;;;;;;;16.15;68.80;99900.66;5021750;28;20226;-83
2022/05/23 08:19:00;;;;;;;4.03;3.30;;;;;;;16.19;68.22;99893.97;5017802;28;20581;-83
2022/05/23 08:21:29;;;;;;;4.70;3.77;;;;;;;16.26;68.14;99895.94;5015790;28;20261;-84
2022/05/23 08:23:55;;;;;;;3.30;3.00;;;;;;;16.30;66.76;99893.78;5019203;28;20204;-83
2022/05/23 08:26:22;;;;;;;4.47;3.30;;;;;;;16.35;65.83;99888.78;5015074;28;20684;-83
2022/05/23 08:28:49;;;;;;;4.60;3.17;;;;;;;16.42;65.47;99895.25;5017281;28;20207;-83
2022/05/23 08:31:16;;;;;;;4.10;3.37;;;;;;;16.55;65.89;99893.00;5013720;28;20245;-83
2022/05/23 08:33:43;;;;;;;5.03;3.80;;;;;;;16.67;65.66;99894.50;5016884;28;20205;-83
2022/05/23 08:36:10;;;;;;;4.37;3.80;;;;;;;16.82;66.09;99889.44;5013932;28;20212;-84
2022/05/23 08:38:38;;;;;;;5.73;4.00;;;;;;;16.97;66.24;99887.03;5013265;28;20796;-83
2022/05/23 08:41:16;;;;;;;5.57;3.97;;;;;;;17.12;66.48;99888.13;5016423;28;20310;-83
2022/05/23 08:43:51;;;;;;;7.40;3.73;;;;;;;17.28;66.00;99890.94;5021698;28;20197;-85
2022/05/23 08:46:23;;;;;;;4.50;3.33;;;;;;;17.43;65.47;99883.13;5013817;28;20208;-85
2022/05/23 08:49:01;;;;;;;5.30;3.73;;;;;;;17.56;64.71;99890.75;5017540;28;20656;-84
2022/05/23 08:51:37;;;;;;;5.67;3.50;;;;;;;17.64;63.80;99886.28;5029590;28;20224;-85
2022/05/23 08:54:19;;;;;;;4.47;3.33;;;;;;;17.76;63.20;99888.69;5026689;28;20874;-85
2022/05/23 08:56:53;;;;;;;4.53;3.50;;;;;;;17.81;62.14;99887.22;5020873;28;20197;-85
2022/05/23 08:59:25;;;;;;;4.60;3.67;;;;;;;17.90;61.87;99886.25;5024447;28;20201;-85
2022/05/23 09:01:58;;;;;;;6.00;3.90;;;;;;;18.02;61.71;99882.25;5026607;28;20220;-84
2022/05/23 09:04:34;;;;;;;4.33;3.73;;;;;;;18.18;61.39;99876.06;5026284;28;20198;-85
2022/05/23 09:07:03;;;;;;;4.67;3.40;;;;;;;18.28;60.22;99868.66;5017425;28;20205;-84
2022/05/23 09:09:34;;;;;;;5.40;3.90;;;;;;;18.41;60.60;99870.03;5016054;28;20801;-84
2022/05/23 09:12:06;;;;;;;4.10;3.33;;;;;;;18.50;59.96;99861.78;5019211;28;20317;-84
2022/05/23 09:14:32;;;;;;;4.67;3.63;;;;;;;18.64;60.05;99861.16;5017340;28;20287;-84
2022/05/23 09:16:59;;;;;;;4.20;3.90;;;;;;;18.77;59.39;99859.81;5016556;28;20610;-85
2022/05/23 09:19:31;;;;;;;4.80;3.23;;;;;;;18.83;58.38;99853.72;5021032;28;20741;-85
2022/05/23 09:22:14;;;;;;;5.87;3.63;;;;;;;18.93;58.57;99841.75;5024984;28;20255;-84
2022/05/23 09:24:45;;;;;;;6.67;4.00;;;;;;;19.02;57.89;99843.44;5021408;28;20207;-85
2022/05/23 09:27:17;;;;;;;5.10;3.77;;;;;;;19.10;57.94;99831.78;5025674;28;20243;-84
2022/05/23 09:29:49;;;;;;;6.00;3.80;;;;;;;19.21;57.84;99828.72;5024965;28;20202;-84
2022/05/23 09:32:18;;;;;;;5.10;3.87;;;;;;;19.31;58.15;99829.38;5022147;28;20308;-84
2022/05/23 09:34:48;;;;;;;4.60;3.77;;;;;;;19.46;58.73;99823.25;5015194;28;20601;-84
2022/05/23 09:37:21;;;;;;;6.17;4.10;;;;;;;19.56;57.74;99823.91;5019361;28;20199;-84
2022/05/23 09:39:54;;;;;;;5.73;3.47;;;;;;;19.63;58.19;99814.09;5020168;28;20227;-83
2022/05/23 09:48:11;;;;;;;7.03;4.90;;;;;;;20.32;58.61;99785.31;5024051;28;20248;-84
2022/05/23 09:50:40;;;;;;;5.00;4.47;;;;;;;20.49;58.07;99776.06;5017779;28;20238;-84
2022/05/23 09:53:20;;;;;;;5.63;4.87;;;;;;;20.69;57.48;99771.00;5019502;28;20234;-87
2022/05/23 09:55:49;;;;;;;7.20;4.60;;;;;;;20.87;57.12;99773.34;5025508;28;20228;-84
2022/05/23 09:58:29;;;;;;;8.40;4.22;;;;;;;21.05;56.47;99763.84;5026580;28;20208;-85
2022/05/23 10:00:58;;;;;;;6.22;4.28;;;;;;;21.26;56.09;99765.84;5024080;28;20293;-85
2022/05/23 10:03:28;;;;;;;7.20;3.97;;;;;;;21.34;54.46;99763.03;5032462;28;20194;-85
2022/05/23 10:06:05;;;;;;;7.68;4.25;;;;;;;21.38;53.78;99758.94;5029283;28;20214;-84
2022/05/23 10:08:34;;;;;;;5.88;4.03;;;;;;;21.39;53.16;99752.47;5024723;28;20194;-85
2022/05/23 10:11:03;;;;;;;5.50;3.80;;;;;;;21.40;52.84;99756.88;5013931;28;20578;-86
2022/05/23 10:13:33;;;;;;;6.45;3.70;;;;;;;21.48;53.19;99753.22;5012957;28;20649;-85
2022/05/23 10:16:10;;;;;;;4.63;3.80;;;;;;;21.57;53.10;99745.81;5036949;28;20198;-85
2022/05/23 10:18:46;;;;;;;6.30;3.33;;;;;;;21.65;52.64;99759.28;5032181;28;20194;-85
2022/05/23 10:21:24;;;;;;;6.30;3.75;;;;;;;21.73;52.57;99748.31;5030371;28;20225;-85
2022/05/23 10:24:00;;;;;;;8.32;3.95;;;;;;;21.78;52.20;99748.59;5033681;28;20197;-85
2022/05/23 10:26:33;;;;;;;5.82;3.92;;;;;;;21.82;52.37;99739.03;5032368;28;20209;-84
2022/05/23 10:29:08;;;;;;;4.78;3.70;;;;;;;21.85;52.15;99740.53;5032319;28;20708;-84
2022/05/23 10:31:38;;;;;;;4.75;3.97;;;;;;;21.85;52.17;99738.66;5032639;28;20217;-85
2022/05/23 10:34:12;;;;;;;6.13;4.72;;;;;;;21.88;52.18;99732.84;5032654;28;20206;-85
2022/05/23 10:36:41;;;;;;;6.18;4.20;;;;;;;21.94;52.23;99726.66;5032132;28;20190;-84
2022/05/23 10:42:11;;;;;;;4.75;4.32;;;;;;;22.02;51.92;99728.44;5032608;28;20193;-84
2022/05/23 10:44:53;;;;;;;5.80;4.38;;;;;;;22.06;51.88;99722.41;5033102;28;20202;-86
2022/05/23 10:47:34;;;;;;;5.20;4.05;;;;;;;22.06;51.71;99722.41;5032448;28;20202;-85
2022/05/23 10:50:10;;;;;;;4.85;4.35;;;;;;;22.04;51.15;99718.22;5029812;28;20228;-84
2022/05/23 10:52:47;;;;;;;3.97;3.67;;;;;;;22.03;51.81;99709.28;5015687;28;20214;-83
2022/05/23 10:55:18;;;;;;;4.72;3.65;;;;;;;22.05;51.83;99700.91;5018281;28;20572;-83
2022/05/23 10:57:59;;;;;;;5.05;3.35;;;;;;;22.04;51.24;99699.25;5025497;28;20700;-83
2022/05/23 11:00:33;;;;;;;4.07;3.67;;;;;;;22.03;51.44;99714.69;5017453;28;20238;-84
2022/05/23 11:03:08;;;;;;;6.82;3.92;;;;;;;22.08;51.86;99717.66;5017918;28;20203;-85
2022/05/23 11:05:44;;;;;;;3.90;3.25;;;;;;;22.14;51.60;99716.88;5020966;28;20198;-83
2022/05/23 11:08:28;;;;;;;4.22;3.33;;;;;;;22.22;51.81;99712.34;5012440;28;20202;-84
2022/05/23 11:11:02;;;;;;;4.53;3.10;;;;;;;22.33;52.15;99703.69;5013831;28;20228;-86
2022/05/23 11:13:46;;;;;;;5.55;3.10;;;;;;;22.47;51.96;99700.03;5010260;28;20227;-86
2022/05/23 11:16:19;;;;;;;5.47;3.25;;;;;;;22.58;51.27;99685.94;5011610;28;20198;-84
2022/05/23 11:19:03;;;;;;;5.57;3.25;;;;;;;22.73;51.48;99681.25;5015403;28;20194;-85
2022/05/23 11:21:39;;;;;;;5.28;2.88;;;;;;;22.93;50.36;99678.66;5013710;28;20226;-85
2022/05/23 11:24:10;;;;;;;5.68;3.15;;;;;;;23.07;49.83;99679.59;5012142;28;20904;-85
2022/05/23 11:26:42;;;;;;;5.55;3.20;;;;;;;23.16;49.54;99671.06;5018384;28;20209;-85
2022/05/23 11:34:51;;;;;;;3.75;3.00;;;;;;;23.44;49.25;99640.25;5014931;28;20205;-85
2022/05/23 11:40:08;;;;;;;4.40;3.10;;;;;;;23.51;49.16;99650.09;5017523;28;20315;-86
2022/05/23 11:42:43;;;;;;;7.25;3.35;;;;;;;23.57;49.12;99642.19;5018143;28;20211;-84
2022/05/23 11:48:40;;;;;;;4.65;2.90;;;;;;;23.62;48.74;99645.13;5020962;28;20233;-82
2022/05/23 11:51:15;;;;;;;3.78;3.03;;;;;;;23.65;48.39;99639.25;5021234;28;20231;-83
2022/05/23 11:53:46;;;;;;;5.20;3.10;;;;;;;23.66;48.86;99639.06;5017250;28;20626;-83
2022/05/23 11:56:34;;;;;;;4.07;3.15;;;;;;;23.73;49.25;99626.31;5015716;28;20206;-83
2022/05/23 11:59:01;;;;;;;5.88;3.47;;;;;;;23.77;48.45;99630.31;5019975;28;20197;-84
2022/05/23 12:01:30;;;;;;;5.95;3.40;;;;;;;23.80;48.64;99620.91;5018042;28;20685;-82
2022/05/23 12:04:17;;;;;;;3.83;3.08;;;;;;;23.85;48.75;99615.66;5015821;28;20297;-82
2022/05/23 12:06:45;;;;;;;5.05;2.92;;;;;;;23.89;48.75;99614.22;5011739;28;20206;-83
2022/05/23 12:09:38;;;;;;;3.65;3.22;;;;;;;23.92;48.65;99600.19;5018769;28;20206;-82
2022/05/23 12:12:47;;;;;;;4.97;3.40;;;;;;;23.96;48.98;99596.03;5023145;28;20205;-82
2022/05/23 12:15:47;;;;;;;4.25;3.00;;;;;;;24.03;48.90;99594.13;5012297;28;20205;-83
2022/05/23 12:18:32;;;;;;;4.22;2.97;;;;;;;24.18;49.21;99591.22;5017319;28;20207;-82
2022/05/23 12:21:00;;;;;;;4.22;2.80;;;;;;;24.28;48.59;99585.34;5014281;28;20236;-83
2022/05/23 12:23:34;;;;;;;5.47;2.85;;;;;;;24.35;47.66;99581.59;5012304;28;20209;-84
2022/05/23 12:26:25;;;;;;;4.90;2.97;;;;;;;24.39;47.42;99571.94;5025523;28;20718;-84
2022/05/23 12:28:54;;;;;;;2.95;2.40;;;;;;;24.50;47.86;99562.28;5015050;28;20199;-83
2022/05/23 12:31:22;;;;;;;3.13;2.58;;;;;;;24.58;47.43;99571.03;5016821;28;20225;-83
2022/05/23 12:34:05;;;;;;;7.25;3.33;;;;;;;24.64;46.59;99566.66;5016050;28;20575;-84
2022/05/23 12:36:35;;;;;;;6.15;2.97;;;;;;;24.72;46.90;99555.50;5021824;28;20237;-84
2022/05/23 12:39:15;;;;;;;5.18;2.38;;;;;;;24.82;46.91;99557.78;5023466;28;20217;-82
2022/05/23 12:41:58;;;;;;;2.92;2.40;;;;;;;24.85;46.11;99551.91;5019676;28;20230;-83
2022/05/23 12:44:54;;;;;;;4.20;2.50;;;;;;;24.93;47.35;99536.13;5017842;28;20202;-82